Feedback
Home > Rebate Center > Cooking > Range Hoods > Rebate Center: Ducted Internal Island Mount Range Hoods > Mounting Type: Island Mount > Blower Type: Internal > Venting Type: Ducted
Expand Your Results
Remove Mounting Type:
Island Mount
Remove Blower Type:
Internal
Remove Venting Type:
Ducted

Are You a
Builder?

Contact us for
special pricing & volume discounts
Get Quote

Rebate Center: Ducted Internal Island Mount Range Hoods

Sort:
Displaying 1 - 20 of 40 Products
20 40 50 products per page
1 2

Bosch 800 Series HIB82651UC

42 Inch Island Chimney Range Hood with 600 CFM Internal Blower, 4-Speed Touch Controls, Heat Sensor, Built-in Timer, Stainless Steel Filters and Non-Duct Option

HIB82651UC Stainless Steel 09/01/2016 - 12/31/2016 Save 10% + $550 on 4+ Piece Kitchen Package Download

Viking Professional 5 Series VCIH54208

42 Inch Island Mount Chimney Range Hood with Optional Blowers, Variable Fan Speeds, Heat Sensor, Dimmable LED Lighting, Backlit LED Knobs and Commercial-Type Filters

VCIH54208SS Stainless Steel 09/01/2016 - 02/28/2017 Instant Savings of up to $1,579 Download
VCIH54208AR Apple Red 09/01/2016 - 02/28/2017 Instant Savings of up to $1,579 Download
VCIH54208BK Black 09/01/2016 - 02/28/2017 Instant Savings of up to $1,579 Download
VCIH54208BU Burgundy 09/01/2016 - 02/28/2017 Instant Savings of up to $1,579 Download
VCIH54208CB Cobalt Blue 09/01/2016 - 02/28/2017 Instant Savings of up to $1,579 Download
VCIH54208GG Graphite Gray 09/01/2016 - 02/28/2017 Instant Savings of up to $1,579 Download
VCIH54208WH White 09/01/2016 - 02/28/2017 Instant Savings of up to $1,579 Download

BlueStar Manhattan Series BSMNHTTNIBC

Brushed Copper Island Hood with 3-Speed Blower Options, Hidden Controls, Baffle Filters, Halogen Lamps and Top Discharge

BSMANHI24BC 24" Width 01/01/2016 - 12/31/2016 Save $500 Download
BSMANHI30BC 30" Width 01/01/2016 - 12/31/2016 Save $500 Download
BSMANHI36BC 36" Width 01/01/2016 - 12/31/2016 Save $500 Download
BSMANHI42BC 42" Width 01/01/2016 - 12/31/2016 Save $500 Download
BSMANHI48BC 48" Width 01/01/2016 - 12/31/2016 Save $500 Download
BSMANHI54BC 54" Width 01/01/2016 - 12/31/2016 Save $500 Download
BSMANHI60BC 60" Width 01/01/2016 - 12/31/2016 Save $500 Download
BSMANHI66BC 66" Width 01/01/2016 - 12/31/2016 Save $500 Download

Prizer Hoods Crescent Series CRESI

Island Chimney Range Hood with Optional Blowers, 3-Speed Fan Control, High-Heat Sensor, Halogen Lights, Handcrafted 16 Gauge Material and Baffle Filters

CRESI36SS 36" Width, Brushed Stainless Steel 01/01/2016 - 12/31/2016 Save $500 Download
CRESI42SS 42" Width, Brushed Stainless Steel 01/01/2016 - 12/31/2016 Save $500 Download
CRESI48SS 48" Width, Brushed Stainless Steel 01/01/2016 - 12/31/2016 Save $500 Download
CRESI54SS 54" Width, Brushed Stainless Steel 01/01/2016 - 12/31/2016 Save $500 Download
CRESI60SS 60" Width, Brushed Stainless Steel 01/01/2016 - 12/31/2016 Save $500 Download

Prizer Hoods Rectangular Series RECTI

Island Chimney Range Hood with Optional Blowers, 3-Speed Fan Control, High-Heat Sensor, Halogen Lights, Handcrafted 16 Gauge Material and Baffle Filters

RECTI48SS 48" Width, Brushed Stainless Steel 01/01/2016 - 12/31/2016 Save $500 Download
RECTI54SS 54" Width, Brushed Stainless Steel 01/01/2016 - 12/31/2016 Save $500 Download
RECTI60SS 60" Width, Brushed Stainless Steel 01/01/2016 - 12/31/2016 Save $500 Download

BlueStar Manhattan Series BSMNHTTNISS

Island Hood with 3-Speed Blower Options, 750 Color Options, Hidden Controls, Dishwasher Safe Baffle Filters, Halogen Lamps and Top Discharge

BSMANHI24SS 24" Width 01/01/2016 - 12/31/2016 Save $500 Download
BSMANHI30SS 30" Width 01/01/2016 - 12/31/2016 Save $500 Download
BSMANHI36SS 36" Width 01/01/2016 - 12/31/2016 Save $500 Download
BSMANHI42SS 42" Width 01/01/2016 - 12/31/2016 Save $500 Download
BSMANHI48SS 48" Width 01/01/2016 - 12/31/2016 Save $500 Download
BSMANHI54SS 54" Width 01/01/2016 - 12/31/2016 Save $500 Download
BSMANHI60SS 60" Width 01/01/2016 - 12/31/2016 Save $500 Download
BSMANHI66SS 66" Width 01/01/2016 - 12/31/2016 Save $500 Download

BlueStar Laramie Series BSLARAMIEIBC

Brushed Copper Island Hood with 3-Speed Blower Options, Hidden Controls, Baffle Filters and Halogen Lamps

BSLARAI30BC 30" Width 01/01/2016 - 12/31/2016 Save $500 Download
BSLARAI36BC 36" Width 01/01/2016 - 12/31/2016 Save $500 Download
BSLARAI42BC 42" Width 01/01/2016 - 12/31/2016 Save $500 Download
BSLARAI48BC 48" Width 01/01/2016 - 12/31/2016 Save $500 Download
BSLARAI54BC 54" Width 01/01/2016 - 12/31/2016 Save $500 Download
BSLARAI60BC 60" Width 01/01/2016 - 12/31/2016 Save $500 Download
BSLARAI66BC 66" Width 01/01/2016 - 12/31/2016 Save $500 Download

BlueStar Laredo Series BSLAREDOISS

Island Hood with 3-Speed Blower Options, 750 Color Options, Hidden Controls, Dishwasher Safe Baffle Filters and Halogen Lamps

BSLAREI30SS 30" Width 01/01/2016 - 12/31/2016 Save $500 Download
BSLAREI36SS 36" Width 01/01/2016 - 12/31/2016 Save $500 Download
BSLAREI42SS 42" Width 01/01/2016 - 12/31/2016 Save $500 Download
BSLAREI48SS 48" Width 01/01/2016 - 12/31/2016 Save $500 Download
BSLAREI54SS 54" Width 01/01/2016 - 12/31/2016 Save $500 Download
BSLAREI60SS 60" Width 01/01/2016 - 12/31/2016 Save $500 Download
BSLAREI66SS 66" Width 01/01/2016 - 12/31/2016 Save $500 Download

BlueStar Manhattan Series BSMNHTTNIBB

Brushed Brass Island Hood with 3-Speed Blower Options, Hidden Controls, Baffle Filters, Halogen Lamps and Top Discharge

BSMANHI24BB 24" Width 01/01/2016 - 12/31/2016 Save $500 Download
BSMANHI30BB 30" Width 01/01/2016 - 12/31/2016 Save $500 Download
BSMANHI36BB 36" Width 01/01/2016 - 12/31/2016 Save $500 Download
BSMANHI42BB 42" Width 01/01/2016 - 12/31/2016 Save $500 Download
BSMANHI48BB 48" Width 01/01/2016 - 12/31/2016 Save $500 Download
BSMANHI54BB 54" Width 01/01/2016 - 12/31/2016 Save $500 Download
BSMANHI60BB 60" Width 01/01/2016 - 12/31/2016 Save $500 Download
BSMANHI66BB 66" Width 01/01/2016 - 12/31/2016 Save $500 Download

Prizer Hoods Ponderosa Series PONDI

Island Range Hood with Optional Blowers, 3-Speed Fan Control, High-Heat Sensor, Halogen Lights, Handcrafted 16 Gauge Material and Baffle Filters

PONDI36SS 36" Width, Brushed Stainless Steel 01/01/2016 - 12/31/2016 Save $500 Download
PONDI42SS 42" Width, Brushed Stainless Steel 01/01/2016 - 12/31/2016 Save $500 Download
PONDI48SS 48" Width, Brushed Stainless Steel 01/01/2016 - 12/31/2016 Save $500 Download
PONDI54SS 54" Width, Brushed Stainless Steel 01/01/2016 - 12/31/2016 Save $500 Download
PONDI60SS 60" Width, Brushed Stainless Steel 01/01/2016 - 12/31/2016 Save $500 Download

BlueStar Laramie Series BSLARAMIEISS

Island Hood with 3-Speed Blower Options, 750 Color Options, Hidden Controls, Dishwasher Safe Baffle Filters and Halogen Lamps

BSLARAI30SS 30" Width 01/01/2016 - 12/31/2016 Save $500 Download
BSLARAI36SS 36" Width 01/01/2016 - 12/31/2016 Save $500 Download
BSLARAI42SS 42" Width 01/01/2016 - 12/31/2016 Save $500 Download
BSLARAI48SS 48" Width 01/01/2016 - 12/31/2016 Save $500 Download
BSLARAI54SS 54" Width 01/01/2016 - 12/31/2016 Save $500 Download
BSLARAI60SS 60" Width 01/01/2016 - 12/31/2016 Save $500 Download
BSLARAI66SS 66" Width 01/01/2016 - 12/31/2016 Save $500 Download

Prizer Hoods Manhattan Series MANHI

Island Chimney Range Hood with Optional Blowers, 3-Speed Fan Control, High-Heat Sensor, Halogen Lights, Handcrafted 16 Gauge Material and Baffle Filters

MANHI24SS 24" Width, Brushed Stainless Steel 01/01/2016 - 12/31/2016 Save $500 Download
MANHI30SS 30" Width, Brushed Stainless Steel 01/01/2016 - 12/31/2016 Save $500 Download
MANHI36SS 36" Width, Brushed Stainless Steel 01/01/2016 - 12/31/2016 Save $500 Download
MANHI42SS 42" Width, Brushed Stainless Steel 01/01/2016 - 12/31/2016 Save $500 Download
MANHI48SS 48" Width, Brushed Stainless Steel 01/01/2016 - 12/31/2016 Save $500 Download
MANHI54SS 54" Width, Brushed Stainless Steel 01/01/2016 - 12/31/2016 Save $500 Download
MANHI60SS 60" Width, Brushed Stainless Steel 01/01/2016 - 12/31/2016 Save $500 Download
MANHI66SS 66" Width, Brushed Stainless Steel 01/01/2016 - 12/31/2016 Save $500 Download

BlueStar Laredo Series BSLAREDOIBB

Brushed Brass Island Hood with 3-Speed Blower Options, Hidden Controls, Baffle Filters and Halogen Lamps

BSLAREI30BB 30" Width 01/01/2016 - 12/31/2016 Save $500 Download
BSLAREI36BB 36" Width 01/01/2016 - 12/31/2016 Save $500 Download
BSLAREI42BB 42" Width 01/01/2016 - 12/31/2016 Save $500 Download
BSLAREI48BB 48" Width 01/01/2016 - 12/31/2016 Save $500 Download
BSLAREI54BB 54" Width 01/01/2016 - 12/31/2016 Save $500 Download
BSLAREI60BB 60" Width 01/01/2016 - 12/31/2016 Save $500 Download
BSLAREI66BB 66" Width 01/01/2016 - 12/31/2016 Save $500 Download

Viking Professional 5 Series VCIH53608

36 Inch Island Mount Chimney Range Hood with Optional Blowers, Variable Fan Speeds, Heat Sensor, Dimmable LED Lighting, Backlit LED Knobs and Commercial-Type Filters

VCIH53608SS Stainless Steel 09/01/2016 - 02/28/2017 Instant Savings of up to $1,579 Download
VCIH53608AR Apple Red 09/01/2016 - 02/28/2017 Instant Savings of up to $1,579 Download
VCIH53608BK Black 09/01/2016 - 02/28/2017 Instant Savings of up to $1,579 Download
VCIH53608BU Burgundy 09/01/2016 - 02/28/2017 Instant Savings of up to $1,579 Download
VCIH53608CB Cobalt Blue 09/01/2016 - 02/28/2017 Instant Savings of up to $1,579 Download
VCIH53608GG Graphite Gray 09/01/2016 - 02/28/2017 Instant Savings of up to $1,579 Download
VCIH53608WH White 09/01/2016 - 02/28/2017 Instant Savings of up to $1,579 Download

Viking Professional 5 Series VCIH56608

66 Inch Island Mount Chimney Range Hood with Optional Blowers, Variable Fan Speeds, Heat Sensor, Dimmable LED Lighting, Backlit LED Knobs and Commercial-Type Filters

VCIH56608SS Stainless Steel 09/01/2016 - 02/28/2017 Instant Savings of up to $1,579 Download
VCIH56608AR Apple Red 09/01/2016 - 02/28/2017 Instant Savings of up to $1,579 Download
VCIH56608BK Black 09/01/2016 - 02/28/2017 Instant Savings of up to $1,579 Download
VCIH56608BU Burgundy 09/01/2016 - 02/28/2017 Instant Savings of up to $1,579 Download
VCIH56608CB Cobalt Blue 09/01/2016 - 02/28/2017 Instant Savings of up to $1,579 Download
VCIH56608GG Graphite Gray 09/01/2016 - 02/28/2017 Instant Savings of up to $1,579 Download
VCIH56608WH White 09/01/2016 - 02/28/2017 Instant Savings of up to $1,579 Download

BlueStar Hampton Series BSHAMPTONIBB

Brushed Brass Island Hood with 3-Speed Blower Options, Hidden Controls, Baffle Filters, Halogen Lamps and Top Exhaust

BSHAMPI30BB 30" Width 01/01/2016 - 12/31/2016 Save $500 Download
BSHAMPI36BB 36" Width 01/01/2016 - 12/31/2016 Save $500 Download
BSHAMPI42BB 42" Width 01/01/2016 - 12/31/2016 Save $500 Download
BSHAMPI48BB 48" Width 01/01/2016 - 12/31/2016 Save $500 Download
BSHAMPI54BB 54" Width 01/01/2016 - 12/31/2016 Save $500 Download
BSHAMPI60BB 60" Width 01/01/2016 - 12/31/2016 Save $500 Download
BSHAMPI66BB 66" Width 01/01/2016 - 12/31/2016 Save $500 Download

BlueStar Hampton Series BSHAMPTONIBC

Brushed Copper Island Hood with 3-Speed Blower Options, Hidden Controls, Baffle Filters, Halogen Lamps and Top Exhaust

BSHAMPI30BC 30" Width 01/01/2016 - 12/31/2016 Save $500 Download
BSHAMPI36BC 36" Width 01/01/2016 - 12/31/2016 Save $500 Download
BSHAMPI42BC 42" Width 01/01/2016 - 12/31/2016 Save $500 Download
BSHAMPI48BC 48" Width 01/01/2016 - 12/31/2016 Save $500 Download
BSHAMPI54BC 54" Width 01/01/2016 - 12/31/2016 Save $500 Download
BSHAMPI60BC 60" Width 01/01/2016 - 12/31/2016 Save $500 Download
BSHAMPI66BC 66" Width 01/01/2016 - 12/31/2016 Save $500 Download

Thermador Masterpiece Series HPIBxxHS

Island Mount Chimney Range Hood with 600 CFM Internal Blower, 3-Speed Fan, 4 Halogen Lights w/ Dimmer, Dishwasher-Safe Frameless Filters and Convertible to Recirculating

HPIB42HS 42 in. Width 01/01/2016 - 12/31/2016 Save Up To $7,646 Instantly Download
HPIB48HS 48 in. Width 01/01/2016 - 12/31/2016 Save Up To $7,646 Instantly Download

Prizer Hoods Casino Royale Series CSNOI

Island Chimney Range Hood with Optional Blowers, 3-Speed Fan Control, High-Heat Sensor, Halogen Lights, Handcrafted 16 Gauge Material and Baffle Filters

CSNOI36SS 36" Width, Brushed Stainless Steel 01/01/2016 - 12/31/2016 Save $500 Download
CSNOI42SS 42" Width, Brushed Stainless Steel 01/01/2016 - 12/31/2016 Save $500 Download
CSNOI48SS 48" Width, Brushed Stainless Steel 01/01/2016 - 12/31/2016 Save $500 Download
CSNOI54SS 54" Width, Brushed Stainless Steel 01/01/2016 - 12/31/2016 Save $500 Download
CSNOI60SS 60" Width, Brushed Stainless Steel 01/01/2016 - 12/31/2016 Save $500 Download

BlueStar Laramie Series BSLARAMIEIBB

Brushed Brass Island Hood with 3-Speed Blower Options, Hidden Controls, Baffle Filters and Halogen Lamps

BSLARAI30BB 30" Width 01/01/2016 - 12/31/2016 Save $500 Download
BSLARAI36BB 36" Width 01/01/2016 - 12/31/2016 Save $500 Download
BSLARAI42BB 42" Width 01/01/2016 - 12/31/2016 Save $500 Download
BSLARAI48BB 48" Width 01/01/2016 - 12/31/2016 Save $500 Download
BSLARAI54BB 54" Width 01/01/2016 - 12/31/2016 Save $500 Download
BSLARAI60BB 60" Width 01/01/2016 - 12/31/2016 Save $500 Download
BSLARAI66BB 66" Width 01/01/2016 - 12/31/2016 Save $500 Download
Sort:
Displaying 1 - 20 of 40 Products
20 40 50 products per page
1 2